Time;durP1;ratioP1;P1;durP2;ratioP2;P2;SDS_P1;SDS_P2;PMS_P1;PMS_P2;Temp;Humidity;BMP_temperature;BMP_pressure;BME280_temperature;BME280_humidity;BME280_pressure;Samples;Min_cycle;Max_cycle;Signal;HPM_P1;HPM_P2
2022/10/06 00:01:04;;;;;;;3.33;2.13;;;13.90;98.00;;;;;;5049341;28;20483;-67
2022/10/06 00:03:31;;;;;;;1.77;1.70;;;13.80;98.00;;;;;;5050849;28;20456;-67
2022/10/06 00:06:00;;;;;;;2.60;2.00;;;13.80;98.00;;;;;;5050824;28;20458;-68
2022/10/06 00:08:28;;;;;;;2.60;1.97;;;13.80;98.00;;;;;;5050855;28;20607;-67
2022/10/06 00:10:57;;;;;;;2.80;1.83;;;13.80;98.00;;;;;;5050617;28;20458;-67
2022/10/06 00:13:24;;;;;;;2.47;1.63;;;13.80;98.00;;;;;;5053537;28;20487;-68
2022/10/06 00:15:51;;;;;;;3.70;2.10;;;13.70;98.00;;;;;;5054397;28;20460;-67
2022/10/06 00:18:18;;;;;;;2.10;1.53;;;13.60;98.00;;;;;;5054591;28;20871;-67
2022/10/06 00:20:53;;;;;;;2.30;1.70;;;13.70;98.00;;;;;;5054700;28;20461;-68
2022/10/06 00:23:21;;;;;;;2.30;1.77;;;13.80;98.00;;;;;;5054257;28;20549;-67
2022/10/06 00:25:49;;;;;;;1.90;1.60;;;13.70;98.00;;;;;;5054006;28;20495;-67
2022/10/06 00:28:17;;;;;;;1.70;1.50;;;13.90;98.00;;;;;;5054120;28;20526;-68
2022/10/06 00:30:45;;;;;;;2.10;1.80;;;13.80;98.00;;;;;;5054032;28;20514;-68
2022/10/06 00:33:14;;;;;;;1.80;1.60;;;13.90;98.00;;;;;;5054033;28;20486;-67
2022/10/06 00:35:43;;;;;;;2.30;1.90;;;13.70;98.00;;;;;;5054121;28;20482;-68
2022/10/06 00:38:15;;;;;;;1.90;1.80;;;13.80;98.00;;;;;;5053782;28;20548;-68
2022/10/06 00:40:47;;;;;;;2.20;1.60;;;13.80;98.00;;;;;;5053782;28;20539;-67
2022/10/06 00:43:48;;;;;;;2.20;1.60;;;13.80;98.00;;;;;;5036314;28;20828;-68
2022/10/06 00:46:21;;;;;;;2.40;1.57;;;13.70;98.00;;;;;;5053957;28;20543;-67
2022/10/06 00:48:52;;;;;;;2.70;1.70;;;13.70;98.00;;;;;;5055721;28;20458;-67
2022/10/06 00:51:20;;;;;;;2.80;1.90;;;13.50;98.00;;;;;;5053659;28;20976;-67
2022/10/06 00:53:48;;;;;;;1.47;1.43;;;13.50;98.00;;;;;;5053849;28;20537;-67
2022/10/06 00:56:16;;;;;;;2.63;1.70;;;13.60;98.00;;;;;;5053751;28;20464;-67
2022/10/06 00:58:45;;;;;;;3.00;1.77;;;13.60;98.00;;;;;;5036012;28;20456;-68
2022/10/06 01:01:12;;;;;;;2.37;1.63;;;13.60;98.00;;;;;;5053323;28;20519;-67
2022/10/06 01:03:43;;;;;;;4.30;2.00;;;13.60;98.00;;;;;;5053392;28;20792;-67
2022/10/06 01:06:10;;;;;;;2.07;1.70;;;13.50;98.00;;;;;;5053301;28;20519;-67
2022/10/06 01:08:38;;;;;;;3.03;2.00;;;13.30;98.00;;;;;;5053433;28;20971;-68
2022/10/06 01:11:05;;;;;;;7.73;1.93;;;13.20;98.00;;;;;;5053642;28;20459;-67
2022/10/06 01:13:33;;;;;;;1.83;1.60;;;13.30;98.00;;;;;;5053457;28;20483;-67
2022/10/06 01:16:05;;;;;;;2.50;2.00;;;13.30;98.00;;;;;;5053269;28;20877;-67
2022/10/06 01:18:33;;;;;;;2.47;1.60;;;13.30;98.00;;;;;;5053390;28;20871;-67
2022/10/06 01:21:06;;;;;;;2.20;1.77;;;13.40;98.00;;;;;;5053265;28;20610;-67
2022/10/06 01:23:36;;;;;;;2.87;1.80;;;13.40;98.00;;;;;;5052886;28;20458;-67
2022/10/06 01:26:08;;;;;;;2.47;1.80;;;13.40;98.00;;;;;;5052829;28;20945;-67
2022/10/06 01:28:36;;;;;;;2.00;1.57;;;13.50;98.00;;;;;;5053005;28;20468;-67
2022/10/06 01:31:03;;;;;;;1.57;1.50;;;13.40;98.00;;;;;;5035406;28;21022;-67
2022/10/06 01:33:30;;;;;;;2.47;1.83;;;13.40;98.00;;;;;;5052843;28;20491;-67
2022/10/06 01:35:58;;;;;;;1.70;1.60;;;13.40;98.00;;;;;;5052790;28;20466;-67
2022/10/06 01:38:25;;;;;;;1.57;1.47;;;13.40;98.00;;;;;;5052753;28;20455;-68
2022/10/06 01:40:57;;;;;;;3.80;1.83;;;13.40;98.00;;;;;;5035166;28;20467;-67
2022/10/06 01:43:24;;;;;;;2.20;1.70;;;13.40;98.00;;;;;;5052900;28;20464;-67
2022/10/06 01:45:55;;;;;;;2.90;1.80;;;13.40;98.00;;;;;;5052550;28;20472;-67
2022/10/06 01:48:23;;;;;;;1.70;1.60;;;13.40;98.00;;;;;;5052464;28;20558;-67
2022/10/06 01:50:53;;;;;;;1.80;1.70;;;13.40;98.00;;;;;;5052595;28;20461;-68
2022/10/06 01:53:20;;;;;;;3.10;1.60;;;13.30;98.00;;;;;;5052471;28;20485;-67
2022/10/06 01:55:47;;;;;;;3.47;1.93;;;13.30;98.00;;;;;;5052544;28;20467;-67
2022/10/06 01:58:16;;;;;;;2.67;1.70;;;13.30;98.00;;;;;;5052372;28;20958;-68
2022/10/06 02:00:43;;;;;;;3.33;2.00;;;13.40;98.00;;;;;;5034663;28;20488;-67
2022/10/06 02:03:12;;;;;;;2.03;1.60;;;13.30;98.00;;;;;;5052331;28;20456;-67
2022/10/06 02:05:39;;;;;;;2.03;1.70;;;13.40;98.00;;;;;;5034770;28;20729;-68
2022/10/06 02:08:08;;;;;;;2.20;1.67;;;13.40;98.00;;;;;;5052140;28;20465;-67
2022/10/06 02:10:35;;;;;;;2.50;1.80;;;13.40;98.00;;;;;;5051810;28;20804;-68
2022/10/06 02:13:03;;;;;;;2.40;1.90;;;13.20;98.00;;;;;;5052298;28;20464;-68
2022/10/06 02:15:32;;;;;;;3.00;1.63;;;13.10;98.00;;;;;;5052112;28;20460;-68
2022/10/06 02:17:59;;;;;;;3.27;1.80;;;13.10;98.00;;;;;;5052583;28;20467;-67
2022/10/06 02:20:27;;;;;;;2.50;1.60;;;13.00;98.00;;;;;;5052031;28;20524;-68
2022/10/06 02:22:54;;;;;;;1.77;1.30;;;13.00;98.00;;;;;;5051864;28;20488;-67
2022/10/06 02:25:21;;;;;;;3.17;2.00;;;13.10;98.00;;;;;;5051854;28;20461;-67
2022/10/06 02:27:48;;;;;;;2.90;1.87;;;13.00;98.00;;;;;;5052070;28;20819;-68
2022/10/06 02:30:15;;;;;;;2.70;1.90;;;13.00;98.00;;;;;;5051714;28;20455;-68
2022/10/06 02:32:44;;;;;;;1.60;1.50;;;13.10;98.00;;;;;;5051704;28;20464;-67
2022/10/06 02:35:12;;;;;;;2.40;1.50;;;13.00;98.00;;;;;;5033180;28;20483;-68
2022/10/06 02:37:40;;;;;;;1.73;1.63;;;12.90;98.00;;;;;;5051552;28;20544;-68
2022/10/06 02:40:08;;;;;;;2.27;1.93;;;12.90;98.00;;;;;;5033573;28;20458;-68
2022/10/06 02:42:37;;;;;;;2.23;1.73;;;13.00;98.00;;;;;;5051745;28;20542;-67
2022/10/06 02:45:05;;;;;;;2.23;1.70;;;12.90;98.00;;;;;;5049490;28;20800;-67
2022/10/06 02:47:34;;;;;;;1.50;1.40;;;12.90;98.00;;;;;;5051631;28;20463;-68
2022/10/06 02:50:05;;;;;;;3.77;2.00;;;13.10;98.00;;;;;;5034015;28;20935;-67
2022/10/06 02:52:33;;;;;;;4.00;1.60;;;13.20;98.00;;;;;;5051370;28;20495;-67
2022/10/06 02:55:02;;;;;;;1.73;1.40;;;13.10;98.00;;;;;;5051199;28;20486;-67
2022/10/06 02:57:29;;;;;;;2.83;1.57;;;12.90;98.00;;;;;;5051394;28;20546;-67
2022/10/06 02:59:56;;;;;;;2.03;1.53;;;12.80;98.00;;;;;;5051259;28;20913;-67
2022/10/06 03:02:23;;;;;;;2.07;1.77;;;12.70;98.00;;;;;;5051469;28;20471;-67
2022/10/06 03:04:51;;;;;;;1.63;1.40;;;12.60;98.00;;;;;;5051350;28;20811;-67
2022/10/06 03:07:19;;;;;;;2.27;1.70;;;12.60;98.00;;;;;;5051399;28;20453;-67
2022/10/06 03:09:47;;;;;;;2.20;1.60;;;12.40;98.00;;;;;;5051596;28;20469;-67
2022/10/06 03:12:14;;;;;;;2.57;1.70;;;12.30;98.00;;;;;;5051757;28;20459;-67
2022/10/06 03:14:41;;;;;;;1.90;1.70;;;12.30;98.00;;;;;;5033555;28;20496;-67
2022/10/06 03:17:08;;;;;;;1.90;1.60;;;12.40;98.00;;;;;;5051328;28;20535;-67
2022/10/06 03:19:37;;;;;;;3.50;1.53;;;12.50;98.00;;;;;;5051213;28;20464;-67
2022/10/06 03:22:04;;;;;;;2.37;1.73;;;12.50;98.00;;;;;;5051228;28;20555;-67
2022/10/06 03:24:33;;;;;;;2.47;1.67;;;12.50;98.00;;;;;;5051285;28;21081;-68
2022/10/06 03:27:04;;;;;;;2.20;1.70;;;12.40;98.00;;;;;;5051024;28;20450;-67
2022/10/06 03:29:31;;;;;;;3.73;2.17;;;12.40;98.00;;;;;;5033269;28;20453;-68
2022/10/06 03:31:58;;;;;;;2.37;1.67;;;12.30;98.00;;;;;;5033511;28;20881;-67
2022/10/06 03:34:25;;;;;;;1.90;1.60;;;12.20;98.00;;;;;;5051131;28;20511;-68
2022/10/06 03:36:52;;;;;;;2.53;1.70;;;12.20;98.00;;;;;;5033188;28;20465;-68
2022/10/06 03:39:19;;;;;;;1.83;1.37;;;12.00;98.00;;;;;;5050869;28;20456;-67
2022/10/06 03:41:48;;;;;;;3.13;1.77;;;12.00;98.00;;;;;;5050979;28;20471;-67
2022/10/06 03:44:16;;;;;;;2.10;1.60;;;12.30;98.00;;;;;;5051005;28;20466;-67
2022/10/06 03:46:44;;;;;;;2.37;1.70;;;12.40;98.00;;;;;;5052941;28;20454;-67
2022/10/06 03:49:11;;;;;;;1.47;1.13;;;12.40;98.00;;;;;;5054782;28;20540;-67
2022/10/06 03:51:40;;;;;;;1.40;1.40;;;12.30;98.00;;;;;;5054871;28;20474;-67
2022/10/06 03:54:09;;;;;;;1.60;1.60;;;12.40;98.00;;;;;;5054544;28;20488;-67
2022/10/06 03:56:38;;;;;;;1.80;1.73;;;12.60;98.00;;;;;;5054604;28;20975;-67
2022/10/06 03:59:08;;;;;;;1.90;1.63;;;12.60;98.00;;;;;;5054597;28;20491;-67
2022/10/06 04:01:38;;;;;;;2.17;1.60;;;12.70;98.00;;;;;;5054347;28;20473;-67
2022/10/06 04:04:06;;;;;;;3.00;1.70;;;12.60;98.00;;;;;;5054452;28;20451;-67
2022/10/06 04:06:38;;;;;;;1.60;1.30;;;12.50;98.00;;;;;;5054540;28;20504;-67
2022/10/06 04:09:09;;;;;;;1.63;1.43;;;12.60;98.00;;;;;;5054325;28;20469;-67
2022/10/06 04:11:38;;;;;;;2.03;1.60;;;12.70;98.00;;;;;;5054659;28;20458;-67
2022/10/06 04:14:08;;;;;;;1.63;1.43;;;12.70;98.00;;;;;;5054412;28;20486;-67
2022/10/06 04:16:36;;;;;;;2.27;1.70;;;12.80;98.00;;;;;;5054414;28;20456;-67
2022/10/06 04:19:06;;;;;;;3.13;1.50;;;12.80;98.00;;;;;;5054340;28;20491;-68
2022/10/06 04:21:35;;;;;;;3.83;1.90;;;12.80;98.00;;;;;;5054323;28;20464;-67
2022/10/06 04:24:05;;;;;;;1.73;1.53;;;12.80;98.00;;;;;;5054194;28;20540;-67
2022/10/06 04:26:34;;;;;;;5.80;2.93;;;12.80;98.00;;;;;;5054112;28;20473;-68
2022/10/06 04:29:01;;;;;;;3.00;2.43;;;12.80;98.00;;;;;;5054057;28;20464;-67
2022/10/06 04:31:32;;;;;;;2.33;1.60;;;12.80;98.00;;;;;;5054101;28;20452;-67
2022/10/06 04:34:00;;;;;;;1.97;1.60;;;12.90;98.00;;;;;;5053760;28;20459;-67
2022/10/06 04:36:30;;;;;;;2.00;1.70;;;12.90;98.00;;;;;;5054128;28;20460;-68
2022/10/06 04:38:59;;;;;;;1.60;1.37;;;12.90;98.00;;;;;;5053960;28;20549;-67
2022/10/06 04:41:30;;;;;;;1.73;1.53;;;13.10;98.00;;;;;;5036388;28;20455;-67
2022/10/06 04:43:58;;;;;;;2.67;2.07;;;13.20;98.00;;;;;;5053764;28;20460;-67
2022/10/06 04:46:27;;;;;;;2.63;1.70;;;13.20;98.00;;;;;;5053632;28;20457;-67
2022/10/06 04:48:55;;;;;;;1.83;1.47;;;13.20;98.00;;;;;;5053627;28;20967;-67
2022/10/06 04:51:25;;;;;;;1.80;1.50;;;13.20;98.00;;;;;;5053609;28;20799;-67
2022/10/06 04:53:52;;;;;;;2.03;1.50;;;13.20;98.00;;;;;;5053732;28;20866;-68
2022/10/06 04:56:23;;;;;;;2.33;2.00;;;13.20;98.00;;;;;;5053132;28;20480;-67
2022/10/06 04:58:52;;;;;;;2.60;1.70;;;13.10;98.00;;;;;;5052805;28;20976;-67
2022/10/06 05:01:21;;;;;;;2.27;1.77;;;13.10;98.00;;;;;;5053326;28;20989;-68
2022/10/06 05:03:52;;;;;;;2.33;1.77;;;13.30;98.00;;;;;;5053477;28;20463;-67
2022/10/06 05:06:22;;;;;;;1.63;1.40;;;13.30;98.00;;;;;;5036076;28;20454;-67
2022/10/06 05:08:51;;;;;;;2.67;2.00;;;13.40;98.00;;;;;;5053835;28;20462;-67
2022/10/06 05:11:19;;;;;;;1.90;1.77;;;13.40;98.00;;;;;;5053271;28;20467;-67
2022/10/06 05:13:46;;;;;;;3.63;1.87;;;13.30;98.00;;;;;;5053259;28;20462;-68
2022/10/06 05:16:16;;;;;;;2.67;1.80;;;13.40;98.00;;;;;;5053089;28;20492;-67
2022/10/06 05:18:46;;;;;;;1.97;1.40;;;13.40;98.00;;;;;;5035633;28;20491;-68
2022/10/06 05:21:16;;;;;;;2.90;1.90;;;13.40;98.00;;;;;;5053155;28;20462;-67
2022/10/06 05:23:44;;;;;;;3.30;1.80;;;13.50;98.00;;;;;;5053124;28;20964;-68
2022/10/06 05:26:13;;;;;;;4.23;1.80;;;13.30;98.00;;;;;;5052814;28;20459;-67
2022/10/06 05:28:40;;;;;;;2.67;1.73;;;13.20;98.00;;;;;;5053261;28;20453;-67
2022/10/06 05:31:13;;;;;;;4.20;1.97;;;13.10;98.00;;;;;;5052778;28;20461;-68
2022/10/06 05:33:40;;;;;;;2.53;1.70;;;13.00;98.00;;;;;;5035795;28;20853;-67
2022/10/06 05:36:11;;;;;;;8.90;2.20;;;13.10;98.00;;;;;;5052807;28;20874;-68
2022/10/06 05:38:38;;;;;;;2.80;1.93;;;13.30;98.00;;;;;;5053046;28;20818;-67
2022/10/06 05:41:09;;;;;;;2.00;1.70;;;13.30;98.00;;;;;;5035096;28;20454;-68
2022/10/06 05:43:37;;;;;;;3.03;1.67;;;13.20;98.00;;;;;;5052919;28;20834;-67
2022/10/06 05:46:07;;;;;;;2.57;1.97;;;13.20;98.00;;;;;;5034777;28;20449;-67
2022/10/06 05:48:34;;;;;;;3.33;2.43;;;13.40;98.00;;;;;;5052739;28;20807;-67
2022/10/06 05:51:03;;;;;;;2.93;1.60;;;13.30;98.00;;;;;;5052424;28;20605;-67
2022/10/06 05:53:31;;;;;;;2.80;1.90;;;13.40;98.00;;;;;;5052616;28;20451;-67
2022/10/06 05:56:08;;;;;;;2.73;1.90;;;13.50;98.00;;;;;;5052404;28;20934;-67
2022/10/06 05:58:36;;;;;;;2.60;1.60;;;13.50;98.00;;;;;;5052472;28;20464;-67
2022/10/06 06:01:08;;;;;;;3.23;1.77;;;13.40;98.00;;;;;;5052274;28;21017;-67
2022/10/06 06:03:35;;;;;;;2.10;1.63;;;13.40;98.00;;;;;;5052546;28;20459;-67
2022/10/06 06:06:03;;;;;;;2.37;1.83;;;13.60;98.00;;;;;;5052310;28;20466;-67
2022/10/06 06:08:30;;;;;;;10.30;2.40;;;13.60;98.00;;;;;;5052163;28;20456;-67
2022/10/06 06:11:07;;;;;;;2.17;1.70;;;13.70;98.00;;;;;;5052166;28;20460;-67
2022/10/06 06:13:34;;;;;;;1.80;1.53;;;13.60;98.00;;;;;;5052308;28;20957;-67
2022/10/06 06:16:03;;;;;;;2.30;1.83;;;13.60;98.00;;;;;;5051758;28;20490;-67
2022/10/06 06:18:31;;;;;;;2.33;1.80;;;13.80;98.00;;;;;;5052186;28;20490;-66
2022/10/06 06:20:58;;;;;;;2.40;1.67;;;13.90;98.00;;;;;;5051810;28;20553;-66
2022/10/06 06:23:31;;;;;;;2.27;1.90;;;13.80;98.00;;;;;;5051866;28;20516;-66
2022/10/06 06:26:00;;;;;;;2.40;1.90;;;13.90;98.00;;;;;;5052047;28;20452;-66
2022/10/06 06:28:31;;;;;;;2.67;1.60;;;14.00;98.00;;;;;;5051849;28;20538;-65
2022/10/06 06:31:03;;;;;;;4.87;2.30;;;13.90;98.00;;;;;;5051643;28;20477;-65
2022/10/06 06:33:31;;;;;;;11.33;2.37;;;13.90;98.00;;;;;;5051953;28;20663;-66
2022/10/06 06:36:01;;;;;;;2.80;2.20;;;13.90;98.00;;;;;;5051607;28;20886;-66
2022/10/06 06:38:29;;;;;;;3.97;2.80;;;13.90;98.00;;;;;;5051791;28;20451;-65
2022/10/06 06:40:56;;;;;;;4.40;2.50;;;13.90;98.00;;;;;;5051751;28;20463;-66
2022/10/06 06:43:23;;;;;;;4.83;2.13;;;14.00;98.00;;;;;;5033950;28;20463;-66
2022/10/06 06:45:52;;;;;;;4.30;1.87;;;14.10;98.00;;;;;;5051771;28;20736;-66
2022/10/06 06:48:19;;;;;;;2.50;1.83;;;14.10;98.00;;;;;;5033956;28;20490;-65
2022/10/06 06:50:55;;;;;;;5.07;2.70;;;14.20;98.00;;;;;;5051284;28;20523;-66
2022/10/06 06:53:23;;;;;;;2.57;1.87;;;14.10;98.00;;;;;;5051325;28;20458;-65
2022/10/06 06:55:52;;;;;;;2.60;2.00;;;14.20;98.00;;;;;;5051470;28;20660;-66
2022/10/06 06:58:19;;;;;;;5.57;2.13;;;14.20;98.00;;;;;;5051408;28;20857;-65
2022/10/06 07:00:48;;;;;;;2.07;1.67;;;14.30;98.00;;;;;;5051385;28;20463;-66
2022/10/06 07:03:20;;;;;;;3.00;1.87;;;14.30;98.00;;;;;;5051437;28;20512;-66
2022/10/06 07:05:48;;;;;;;2.57;2.13;;;14.30;98.00;;;;;;5051603;28;20465;-66
2022/10/06 07:08:19;;;;;;;5.87;2.00;;;14.30;98.00;;;;;;5051113;28;20456;-66
2022/10/06 07:10:47;;;;;;;4.80;2.30;;;14.40;98.00;;;;;;5034018;28;20628;-66
2022/10/06 07:13:16;;;;;;;2.20;1.87;;;14.50;98.00;;;;;;5067473;28;20443;-66
2022/10/06 07:26:48;;;;;;;1.90;1.50;;;15.40;98.00;;;;;;5075494;28;20508;-65
2022/10/06 07:29:16;;;;;;;2.90;1.97;;;15.50;98.00;;;;;;5074912;28;20468;-65
2022/10/06 07:31:43;;;;;;;2.90;2.03;;;15.70;98.00;;;;;;5057470;28;20454;-65
2022/10/06 07:34:11;;;;;;;1.87;1.47;;;15.90;98.00;;;;;;5081670;28;20455;-65
2022/10/06 07:36:40;;;;;;;1.50;1.47;;;16.20;98.00;;;;;;5075285;28;20495;-66
2022/10/06 07:39:09;;;;;;;5.47;2.20;;;16.40;98.00;;;;;;5075100;28;20491;-65
2022/10/06 07:41:36;;;;;;;3.33;2.20;;;16.80;98.00;;;;;;5057721;28;20808;-65
2022/10/06 07:44:04;;;;;;;2.47;2.00;;;17.00;98.00;;;;;;5057758;28;20476;-66
2022/10/06 07:46:33;;;;;;;4.10;2.57;;;17.20;98.00;;;;;;5075047;28;20837;-65
2022/10/06 07:49:00;;;;;;;3.60;2.73;;;17.40;98.00;;;;;;5057472;28;20509;-66
2022/10/06 07:51:29;;;;;;;3.97;2.60;;;17.40;98.00;;;;;;5073279;28;20456;-66
2022/10/06 07:53:56;;;;;;;3.53;2.40;;;17.50;98.00;;;;;;5074623;28;20453;-66
2022/10/06 07:56:23;;;;;;;3.63;2.33;;;17.50;98.00;;;;;;5075171;28;20495;-67
2022/10/06 07:58:51;;;;;;;4.30;3.03;;;17.40;98.00;;;;;;5075510;28;20453;-67
2022/10/06 08:01:19;;;;;;;3.43;2.63;;;17.50;98.00;;;;;;5075023;28;20468;-66
2022/10/06 08:03:49;;;;;;;2.93;2.00;;;17.50;98.00;;;;;;5075607;28;20448;-66
2022/10/06 08:06:17;;;;;;;5.00;2.40;;;17.40;98.00;;;;;;5074951;28;20501;-66
2022/10/06 08:08:48;;;;;;;4.53;2.03;;;17.30;98.00;;;;;;5074581;28;20445;-66
2022/10/06 08:11:15;;;;;;;3.63;2.33;;;17.30;98.00;;;;;;5074866;28;20475;-66
2022/10/06 08:13:44;;;;;;;4.90;2.70;;;17.30;98.00;;;;;;5079072;28;20458;-66
2022/10/06 08:16:13;;;;;;;2.67;2.10;;;17.10;98.00;;;;;;5097391;28;20547;-66
2022/10/06 08:18:41;;;;;;;5.30;2.40;;;17.10;98.00;;;;;;5097482;28;20538;-66
2022/10/06 08:21:16;;;;;;;3.67;2.20;;;17.10;98.00;;;;;;5097493;28;20858;-66
2022/10/06 08:23:43;;;;;;;2.83;2.07;;;17.20;98.00;;;;;;5097378;28;20455;-66
2022/10/06 08:26:13;;;;;;;2.77;2.17;;;17.20;98.00;;;;;;5097448;28;20456;-66
2022/10/06 08:28:43;;;;;;;7.43;2.20;;;17.30;98.00;;;;;;5097910;28;20550;-66
2022/10/06 08:31:10;;;;;;;6.17;2.20;;;17.40;98.00;;;;;;5097317;28;20492;-66
2022/10/06 08:33:38;;;;;;;3.20;2.20;;;17.50;98.00;;;;;;5093463;28;20501;-66
2022/10/06 08:36:10;;;;;;;3.07;2.07;;;17.50;98.00;;;;;;5093959;28;20551;-67
2022/10/06 08:38:39;;;;;;;2.90;2.50;;;17.40;98.00;;;;;;5094368;28;20480;-66
2022/10/06 08:41:19;;;;;;;3.60;2.40;;;17.50;98.00;;;;;;5094313;28;20973;-66
2022/10/06 08:43:52;;;;;;;3.17;2.23;;;17.50;98.00;;;;;;5094142;28;20488;-66
2022/10/06 08:46:22;;;;;;;3.77;2.17;;;17.50;98.00;;;;;;5094417;28;20821;-66
2022/10/06 08:48:49;;;;;;;4.90;2.50;;;17.50;98.00;;;;;;5094141;28;20955;-66
2022/10/06 08:51:30;;;;;;;3.17;2.10;;;17.50;98.00;;;;;;5093982;28;20464;-66
2022/10/06 08:54:03;;;;;;;4.67;2.43;;;17.50;98.00;;;;;;5094310;28;20464;-66
2022/10/06 08:56:43;;;;;;;3.63;2.40;;;17.60;98.00;;;;;;5094007;28;20480;-67
2022/10/06 08:59:11;;;;;;;2.37;1.80;;;17.50;98.00;;;;;;5093822;28;20457;-67
2022/10/06 09:01:44;;;;;;;2.97;1.97;;;17.50;98.00;;;;;;5093664;28;20853;-66
2022/10/06 09:04:25;;;;;;;2.47;1.90;;;17.70;98.00;;;;;;5093626;28;20483;-66
2022/10/06 09:07:02;;;;;;;2.30;1.60;;;17.80;98.00;;;;;;5093567;28;20456;-66
2022/10/06 09:09:46;;;;;;;4.87;1.90;;;17.80;98.00;;;;;;5076663;28;20949;-66
2022/10/06 09:12:20;;;;;;;2.70;1.80;;;17.80;98.00;;;;;;5076574;28;20455;-66
2022/10/06 09:14:52;;;;;;;1.70;1.60;;;17.80;98.00;;;;;;5093612;28;20464;-66
2022/10/06 09:17:38;;;;;;;2.10;1.77;;;17.70;98.00;;;;;;5093450;28;20483;-66
2022/10/06 09:20:12;;;;;;;2.20;1.90;;;17.70;98.00;;;;;;5094701;28;20448;-66
2022/10/06 09:22:39;;;;;;;1.87;1.63;;;17.80;98.00;;;;;;5093537;28;20455;-66
2022/10/06 09:25:16;;;;;;;1.90;1.70;;;17.90;98.00;;;;;;5093391;28;20456;-66
2022/10/06 09:27:49;;;;;;;4.33;2.00;;;18.00;98.00;;;;;;5093114;28;20490;-66
2022/10/06 09:30:20;;;;;;;1.60;1.57;;;18.00;98.00;;;;;;5093476;28;20444;-66
2022/10/06 09:32:52;;;;;;;1.60;1.57;;;18.10;98.00;;;;;;5093206;28;20525;-66
2022/10/06 09:35:22;;;;;;;2.03;1.60;;;18.30;98.00;;;;;;5092911;28;20467;-66
2022/10/06 09:37:55;;;;;;;3.23;1.93;;;18.30;98.00;;;;;;5092609;28;20988;-66
2022/10/06 09:40:49;;;;;;;8.63;2.20;;;18.50;98.00;;;;;;5092956;28;20825;-66
2022/10/06 09:43:22;;;;;;;1.70;1.67;;;18.60;98.00;;;;;;5090657;28;20486;-66
2022/10/06 09:45:50;;;;;;;1.90;1.63;;;18.40;98.00;;;;;;5092821;28;20966;-66
2022/10/06 09:48:22;;;;;;;3.00;1.97;;;18.40;98.00;;;;;;5091401;28;20538;-66
2022/10/06 09:51:17;;;;;;;2.20;1.90;;;18.50;98.00;;;;;;5077580;28;20460;-66
2022/10/06 09:54:02;;;;;;;3.90;2.00;;;18.70;98.00;;;;;;5089715;28;20460;-66
2022/10/06 09:56:32;;;;;;;2.07;1.60;;;18.70;98.00;;;;;;5092715;28;20848;-66
2022/10/06 09:59:00;;;;;;;2.53;1.77;;;18.80;98.00;;;;;;5092581;28;20468;-66
2022/10/06 10:01:30;;;;;;;3.03;1.80;;;18.90;98.00;;;;;;5092455;28;20466;-66
2022/10/06 10:04:00;;;;;;;3.40;2.30;;;19.00;98.00;;;;;;5092441;28;20456;-66
2022/10/06 10:06:29;;;;;;;3.07;2.10;;;18.90;98.00;;;;;;5092696;28;20494;-66
2022/10/06 10:09:20;;;;;;;2.27;1.60;;;19.10;98.00;;;;;;5092345;28;20459;-67
2022/10/06 10:14:45;;;;;;;3.60;2.03;;;19.40;98.00;;;;;;5092392;28;20949;-68
2022/10/06 10:17:19;;;;;;;2.70;2.07;;;19.50;98.00;;;;;;5092209;28;20513;-66
2022/10/06 10:19:52;;;;;;;3.50;2.00;;;19.80;98.00;;;;;;5092217;28;20464;-67
2022/10/06 10:22:22;;;;;;;1.90;1.60;;;19.90;98.00;;;;;;5074398;28;20480;-67
2022/10/06 10:25:02;;;;;;;2.80;1.80;;;20.00;98.00;;;;;;5092118;28;20467;-66
2022/10/06 10:27:37;;;;;;;2.80;1.97;;;20.20;98.00;;;;;;5092204;28;20448;-66
2022/10/06 10:30:09;;;;;;;2.03;1.60;;;20.10;98.00;;;;;;5092149;28;20459;-67
2022/10/06 10:32:49;;;;;;;3.27;1.90;;;20.20;98.00;;;;;;5092066;28;20456;-67
2022/10/06 10:35:24;;;;;;;1.80;1.70;;;20.40;98.00;;;;;;5092064;28;20547;-67
2022/10/06 10:37:57;;;;;;;1.73;1.60;;;20.40;98.00;;;;;;5092064;28;20574;-67
2022/10/06 10:40:36;;;;;;;2.30;1.80;;;20.50;98.00;;;;;;5091830;28;20460;-67
2022/10/06 10:43:11;;;;;;;2.50;1.97;;;20.60;98.00;;;;;;5091984;28;20972;-67
2022/10/06 10:45:46;;;;;;;1.67;1.60;;;20.60;98.00;;;;;;5091957;28;20500;-67
2022/10/06 10:48:18;;;;;;;3.80;1.57;;;20.60;98.00;;;;;;5092138;28;21010;-67
2022/10/06 10:50:54;;;;;;;2.70;1.70;;;20.30;98.00;;;;;;5091536;28;20468;-67
2022/10/06 10:53:28;;;;;;;1.77;1.50;;;20.40;98.00;;;;;;5091880;28;20492;-67
2022/10/06 10:55:55;;;;;;;2.30;1.53;;;20.40;98.00;;;;;;5091059;28;20460;-67
2022/10/06 10:58:29;;;;;;;3.07;2.00;;;20.10;98.00;;;;;;5091819;28;20460;-67
2022/10/06 11:01:04;;;;;;;1.80;1.43;;;20.30;98.00;;;;;;5073476;28;20467;-67
2022/10/06 11:03:32;;;;;;;3.00;1.60;;;20.40;98.00;;;;;;5091592;28;20831;-66
2022/10/06 11:06:24;;;;;;;1.90;1.30;;;20.30;98.00;;;;;;5091615;28;20858;-66
2022/10/06 11:08:57;;;;;;;1.73;1.60;;;20.40;98.00;;;;;;5091847;28;20615;-66
2022/10/06 11:11:38;;;;;;;1.70;1.60;;;20.80;98.00;;;;;;5091602;28;20440;-66
2022/10/06 11:14:16;;;;;;;1.60;1.43;;;21.20;98.00;;;;;;5091510;28;20463;-66
2022/10/06 11:16:50;;;;;;;5.17;1.70;;;21.30;98.00;;;;;;5091665;28;20480;-66
2022/10/06 11:19:27;;;;;;;1.77;1.50;;;21.70;98.00;;;;;;5091422;28;20544;-66
2022/10/06 11:22:01;;;;;;;2.13;1.80;;;22.00;98.00;;;;;;5091293;28;20485;-66
2022/10/06 11:24:37;;;;;;;4.43;2.30;;;22.40;97.80;;;;;;5091622;28;20806;-66
2022/10/06 11:27:19;;;;;;;1.70;1.53;;;22.90;97.50;;;;;;5091813;28;20451;-66
2022/10/06 11:29:56;;;;;;;3.00;1.60;;;23.10;98.00;;;;;;5091989;28;20945;-66
2022/10/06 11:32:33;;;;;;;2.27;1.90;;;23.50;96.30;;;;;;5092159;28;20466;-66
2022/10/06 11:35:00;;;;;;;2.87;2.00;;;23.60;96.60;;;;;;5074052;28;20459;-66
2022/10/06 11:37:36;;;;;;;2.57;1.70;;;23.50;93.90;;;;;;5091132;28;20487;-67
2022/10/06 11:40:27;;;;;;;3.40;1.80;;;23.50;96.30;;;;;;5091118;28;20993;-66
2022/10/06 11:42:59;;;;;;;2.00;1.73;;;23.60;95.80;;;;;;5091149;28;20469;-67
2022/10/06 11:45:34;;;;;;;2.27;1.60;;;23.50;95.40;;;;;;5091135;28;20452;-67
2022/10/06 11:48:23;;;;;;;1.50;1.50;;;23.20;95.90;;;;;;5091273;28;20609;-66
2022/10/06 11:50:54;;;;;;;3.30;2.10;;;22.80;96.20;;;;;;5074121;28;20456;-67
2022/10/06 11:53:37;;;;;;;8.40;2.20;;;22.50;97.50;;;;;;5091451;28;20462;-66
2022/10/06 11:56:45;;;;;;;2.50;1.70;;;22.20;98.00;;;;;;5091237;28;20447;-66
2022/10/06 11:59:30;;;;;;;2.40;1.80;;;22.00;98.00;;;;;;5091106;28;20463;-66
2022/10/06 12:02:01;;;;;;;1.60;1.50;;;21.60;98.00;;;;;;5090849;28;20468;-67
2022/10/06 12:04:29;;;;;;;2.10;1.60;;;21.40;98.00;;;;;;5091136;28;21011;-66
2022/10/06 12:07:01;;;;;;;2.80;1.63;;;21.20;98.00;;;;;;5091841;28;20489;-66
2022/10/06 12:09:51;;;;;;;5.43;1.60;;;21.00;98.00;;;;;;5094805;28;20550;-66
2022/10/06 12:12:57;;;;;;;2.47;1.60;;;20.90;98.00;;;;;;5094546;28;20456;-66
2022/10/06 12:16:12;;;;;;;1.90;1.70;;;20.80;98.00;;;;;;5094657;28;20455;-67
2022/10/06 12:18:47;;;;;;;3.40;1.70;;;20.70;98.00;;;;;;5092644;28;20450;-66
2022/10/06 12:21:32;;;;;;;2.63;1.70;;;20.60;98.00;;;;;;5094490;28;20561;-66
2022/10/06 12:24:17;;;;;;;2.33;1.80;;;20.60;98.00;;;;;;5094976;28;20451;-66
2022/10/06 12:26:54;;;;;;;2.03;1.60;;;20.70;98.00;;;;;;5078137;28;20486;-66
2022/10/06 12:29:39;;;;;;;3.40;1.50;;;20.70;98.00;;;;;;5074129;28;20460;-66
2022/10/06 12:32:19;;;;;;;1.67;1.40;;;20.70;98.00;;;;;;5074036;28;20496;-66
2022/10/06 12:35:02;;;;;;;2.80;1.90;;;20.70;98.00;;;;;;5074127;28;20539;-66
2022/10/06 12:37:51;;;;;;;2.50;1.90;;;20.70;98.00;;;;;;5074579;28;20481;-66
2022/10/06 12:40:47;;;;;;;1.90;1.60;;;20.80;98.00;;;;;;5068466;28;20460;-67
2022/10/06 12:43:56;;;;;;;3.17;1.80;;;20.80;98.00;;;;;;5074175;28;20464;-67
2022/10/06 12:46:41;;;;;;;1.63;1.30;;;20.60;98.00;;;;;;5073705;28;20837;-66
2022/10/06 12:49:40;;;;;;;2.27;1.73;;;20.50;98.00;;;;;;5073543;28;20552;-67
2022/10/06 12:52:22;;;;;;;2.60;1.77;;;20.50;98.00;;;;;;5073868;28;20485;-66
2022/10/06 12:55:07;;;;;;;9.60;1.73;;;20.50;98.00;;;;;;5073922;28;20464;-66
2022/10/06 12:57:45;;;;;;;3.30;1.70;;;20.40;98.00;;;;;;5073788;28;20576;-67
2022/10/06 13:00:36;;;;;;;1.57;1.50;;;20.40;98.00;;;;;;5056411;28;20454;-66
2022/10/06 13:03:07;;;;;;;2.47;1.67;;;20.50;98.00;;;;;;5073162;28;20836;-67
2022/10/06 13:05:36;;;;;;;1.87;1.60;;;20.60;98.00;;;;;;5073855;28;20552;-67
2022/10/06 13:08:05;;;;;;;5.63;2.10;;;20.60;98.00;;;;;;5073037;28;20933;-67
2022/10/06 13:10:34;;;;;;;1.70;1.53;;;20.90;98.00;;;;;;5072528;28;20827;-67
2022/10/06 13:13:01;;;;;;;2.43;1.97;;;21.50;98.00;;;;;;5072959;28;20453;-67
2022/10/06 13:15:29;;;;;;;1.97;1.60;;;21.70;98.00;;;;;;5073455;28;20457;-67
2022/10/06 13:17:59;;;;;;;2.33;1.67;;;21.70;98.00;;;;;;5073070;28;20488;-66
2022/10/06 13:20:39;;;;;;;1.63;1.50;;;21.60;98.00;;;;;;5072983;28;20876;-66
2022/10/06 13:23:22;;;;;;;1.50;1.50;;;21.50;98.00;;;;;;5073338;28;20472;-66
2022/10/06 13:25:54;;;;;;;2.37;1.57;;;21.60;98.00;;;;;;5073122;28;20459;-71